Time;durP1;ratioP1;P1;durP2;ratioP2;P2;SDS_P1;SDS_P2;PMS_P1;PMS_P2;Temp;Humidity;BMP_temperature;BMP_pressure;BME280_temperature;BME280_humidity;BME280_pressure;Samples;Min_cycle;Max_cycle;Signal;HPM_P1;HPM_P2
2022/05/21 00:01:55;;;;;;;11.35;5.53;;;10.80;99.90;;;;;;5051119;28;20041;-76
2022/05/21 00:04:20;;;;;;;;;;;10.80;99.90;;;;;;5051782;28;20033;-75
2022/05/21 00:06:46;;;;;;;12.35;5.50;;;10.80;99.90;;;;;;5051375;28;19916;-76
2022/05/21 00:09:12;;;;;;;11.90;5.50;;;10.90;99.90;;;;;;5051714;28;20045;-75
2022/05/21 00:11:38;;;;;;;10.23;5.72;;;10.90;99.90;;;;;;5034611;28;21013;-76
2022/05/21 00:14:05;;;;;;;11.05;6.28;;;10.90;99.90;;;;;;5051075;28;20095;-75
2022/05/21 00:16:31;;;;;;;14.70;6.38;;;10.90;99.90;;;;;;5051578;28;20583;-76
2022/05/21 00:18:57;;;;;;;12.98;6.57;;;11.00;99.90;;;;;;5050894;28;20136;-75
2022/05/21 00:21:26;;;;;;;14.00;7.22;;;10.90;99.90;;;;;;5051077;28;20488;-76
2022/05/21 00:23:52;;;;;;;14.52;7.10;;;10.90;99.90;;;;;;5050690;28;20065;-75
2022/05/21 00:26:18;;;;;;;18.25;8.20;;;11.00;99.90;;;;;;5050762;28;20053;-76
2022/05/21 00:28:45;;;;;;;13.98;6.75;;;11.00;99.90;;;;;;5033581;28;20094;-76
2022/05/21 00:31:15;;;;;;;15.50;7.45;;;11.10;99.90;;;;;;5050961;28;21188;-76
2022/05/21 00:33:42;;;;;;;15.00;7.20;;;11.00;99.90;;;;;;5049983;28;20041;-75
2022/05/21 00:36:08;;;;;;;13.45;6.85;;;11.10;99.90;;;;;;5049696;28;20045;-75
2022/05/21 00:38:35;;;;;;;11.50;6.70;;;11.20;99.90;;;;;;5051147;28;20139;-75
2022/05/21 00:41:02;;;;;;;11.73;6.82;;;11.20;99.90;;;;;;5050482;28;20077;-75
2022/05/21 00:43:42;;;;;;;16.10;7.95;;;11.10;99.90;;;;;;5050828;28;20029;-75
2022/05/21 00:46:17;;;;;;;15.07;8.02;;;11.10;99.90;;;;;;5050550;28;20088;-75
2022/05/21 00:48:44;;;;;;;15.68;8.07;;;11.10;99.90;;;;;;5034003;28;20040;-76
2022/05/21 00:51:20;;;;;;;13.93;8.65;;;11.10;99.90;;;;;;5051027;28;20381;-76
2022/05/21 00:53:49;;;;;;;17.00;8.40;;;11.10;99.90;;;;;;5050344;28;20039;-76
2022/05/21 00:56:16;;;;;;;15.68;9.25;;;11.10;99.90;;;;;;5033977;28;20362;-76
2022/05/21 01:01:31;;;;;;;19.98;9.57;;;11.20;99.90;;;;;;5050047;28;20099;-75
2022/05/21 01:03:57;;;;;;;22.58;10.55;;;11.10;99.90;;;;;;5050030;28;20032;-76
2022/05/21 01:06:23;;;;;;;22.10;12.13;;;11.20;99.90;;;;;;5050357;28;20047;-76
2022/05/21 01:08:49;;;;;;;21.58;12.32;;;11.10;99.90;;;;;;5049565;28;20286;-75
2022/05/21 01:11:17;;;;;;;20.73;12.07;;;11.20;99.90;;;;;;5050258;28;20501;-76
2022/05/21 01:13:45;;;;;;;21.92;12.02;;;11.30;99.90;;;;;;5049771;28;20326;-76
2022/05/21 01:16:11;;;;;;;24.48;12.63;;;11.20;99.90;;;;;;5049919;28;20045;-76
2022/05/21 01:18:37;;;;;;;21.60;13.07;;;11.30;99.90;;;;;;5049987;28;20083;-76
2022/05/21 01:21:04;;;;;;;24.25;14.75;;;11.40;99.90;;;;;;5049231;28;20448;-76
2022/05/21 01:23:29;;;;;;;;;;;11.40;99.90;;;;;;5050117;28;20068;-75
2022/05/21 01:25:58;;;;;;;21.48;13.07;;;11.40;99.90;;;;;;5048700;28;19982;-75
2022/05/21 01:28:26;;;;;;;26.25;14.32;;;11.40;99.90;;;;;;5033057;28;20045;-75
2022/05/21 01:30:55;;;;;;;30.60;16.05;;;11.50;99.90;;;;;;5049312;28;20041;-76
2022/05/21 01:33:25;;;;;;;24.83;14.45;;;11.50;99.90;;;;;;5033160;28;20044;-75
2022/05/21 01:35:51;;;;;;;32.10;15.93;;;11.50;99.90;;;;;;5049004;28;20052;-75
2022/05/21 01:38:19;;;;;;;24.65;15.15;;;11.70;99.90;;;;;;5049418;28;20036;-76
2022/05/21 01:40:45;;;;;;;29.23;17.48;;;11.70;99.90;;;;;;5048892;28;20044;-76
2022/05/21 01:45:56;;;;;;;30.05;18.30;;;11.70;99.90;;;;;;5048606;28;20056;-76
2022/05/21 01:48:24;;;;;;;33.15;19.42;;;11.70;99.90;;;;;;5048834;28;20036;-76
2022/05/21 01:50:52;;;;;;;29.20;18.20;;;11.80;99.90;;;;;;5048722;28;20049;-76
2022/05/21 01:53:19;;;;;;;39.90;20.25;;;11.80;99.90;;;;;;5049558;28;20558;-75
2022/05/21 01:55:46;;;;;;;36.67;21.17;;;11.80;99.90;;;;;;5048615;28;20068;-75
2022/05/21 01:58:13;;;;;;;34.45;19.92;;;11.90;99.90;;;;;;5032536;28;20076;-75
2022/05/21 02:00:40;;;;;;;37.60;20.98;;;12.00;99.90;;;;;;5049132;28;20044;-75
2022/05/21 02:03:07;;;;;;;35.33;20.35;;;12.00;99.90;;;;;;5048882;28;20036;-75
2022/05/21 02:05:33;;;;;;;39.38;23.48;;;12.10;99.90;;;;;;5049345;28;20480;-75
2022/05/21 02:07:59;;;;;;;40.63;23.40;;;12.10;99.90;;;;;;5032254;28;20032;-75
2022/05/21 02:10:25;;;;;;;41.50;24.05;;;12.10;99.90;;;;;;5050104;28;20360;-75
2022/05/21 02:12:50;;;;;;;41.72;24.50;;;12.20;99.90;;;;;;5048487;28;20048;-76
2022/05/21 02:15:16;;;;;;;35.60;21.98;;;12.20;99.90;;;;;;5048661;28;20053;-76
2022/05/21 02:17:42;;;;;;;45.55;22.73;;;12.30;99.90;;;;;;5049023;28;20406;-76
2022/05/21 02:20:08;;;;;;;39.25;23.30;;;12.30;99.90;;;;;;5048613;28;20040;-76
2022/05/21 02:22:36;;;;;;;40.17;24.30;;;12.30;99.90;;;;;;5032616;28;20435;-76
2022/05/21 02:25:07;;;;;;;48.30;26.02;;;12.40;99.90;;;;;;5031504;28;20159;-76
2022/05/21 02:27:33;;;;;;;42.60;23.98;;;12.40;99.90;;;;;;5049087;28;21129;-76
2022/05/21 02:29:59;;;;;;;52.50;27.08;;;12.40;99.90;;;;;;5048383;28;20067;-76
2022/05/21 02:32:25;;;;;;;48.67;23.92;;;12.50;99.90;;;;;;5046390;28;20045;-76
2022/05/21 02:34:50;;;;;;;44.73;24.70;;;12.50;99.90;;;;;;5032004;28;20377;-75
2022/05/21 02:40:01;;;;;;;47.15;26.23;;;12.50;99.90;;;;;;5047925;28;20064;-76
2022/05/21 02:42:45;;;;;;;49.47;26.58;;;12.50;99.90;;;;;;5015611;28;20127;-74
2022/05/21 02:45:16;;;;;;;53.42;27.73;;;12.50;99.90;;;;;;5048690;28;20047;-76
2022/05/21 02:47:42;;;;;;;42.85;24.45;;;12.50;99.90;;;;;;5048622;28;20039;-76
2022/05/21 02:50:09;;;;;;;45.80;25.25;;;12.50;99.90;;;;;;5031711;28;20041;-76
2022/05/21 02:52:34;;;;;;;;;;;12.50;99.90;;;;;;5049047;28;20540;-75
2022/05/21 02:55:00;;;;;;;45.85;25.77;;;12.50;99.90;;;;;;5048058;28;19923;-76
2022/05/21 02:57:26;;;;;;;44.75;23.73;;;12.50;99.90;;;;;;5049466;28;20099;-76
2022/05/21 02:59:52;;;;;;;41.10;23.05;;;12.40;99.90;;;;;;5049263;28;20045;-76
2022/05/21 03:02:18;;;;;;;45.17;21.55;;;12.50;99.90;;;;;;5051548;28;20033;-76
2022/05/21 03:04:44;;;;;;;35.13;18.25;;;12.50;99.90;;;;;;5052278;28;20531;-76
2022/05/21 03:07:11;;;;;;;44.22;18.73;;;12.50;99.90;;;;;;5052079;28;20722;-76
2022/05/21 03:12:21;;;;;;;28.42;14.73;;;12.50;99.90;;;;;;5052397;28;20049;-76
2022/05/21 03:14:47;;;;;;;31.70;12.98;;;12.60;99.90;;;;;;5035467;28;20037;-76
2022/05/21 03:17:13;;;;;;;21.85;11.82;;;12.60;99.90;;;;;;5051682;28;20051;-75
2022/05/21 03:19:39;;;;;;;24.92;11.52;;;12.70;99.90;;;;;;5052042;28;20040;-76
2022/05/21 03:22:04;;;;;;;26.90;9.88;;;12.70;99.90;;;;;;5051661;28;20394;-75
2022/05/21 03:24:31;;;;;;;27.23;9.65;;;12.70;99.90;;;;;;5053356;28;20504;-76
2022/05/21 03:26:57;;;;;;;25.38;9.23;;;12.70;99.90;;;;;;5054825;28;20094;-75
2022/05/21 03:29:23;;;;;;;31.30;9.15;;;12.60;99.90;;;;;;5055164;28;20111;-75
2022/05/21 03:31:49;;;;;;;26.70;8.73;;;12.70;99.90;;;;;;5054950;28;20072;-76
2022/05/21 03:34:15;;;;;;;28.10;8.73;;;12.70;99.90;;;;;;5054962;28;20032;-76
2022/05/21 03:36:41;;;;;;;18.17;7.23;;;12.70;99.90;;;;;;5055127;28;20071;-76
2022/05/21 03:39:06;;;;;;;23.13;7.60;;;12.70;99.90;;;;;;5054687;28;20290;-75
2022/05/21 03:41:32;;;;;;;26.52;7.40;;;12.70;99.90;;;;;;5054754;28;20048;-76
2022/05/21 03:44:00;;;;;;;19.77;6.97;;;12.80;99.90;;;;;;5054816;28;20071;-76
2022/05/21 03:46:27;;;;;;;21.58;7.07;;;12.80;99.90;;;;;;5054851;28;20101;-76
2022/05/21 03:48:52;;;;;;;;;;;12.80;99.90;;;;;;5055187;28;20377;-75
2022/05/21 03:51:18;;;;;;;25.42;6.72;;;12.80;99.90;;;;;;5054940;28;19916;-76
2022/05/21 03:53:43;;;;;;;23.00;6.47;;;12.90;99.90;;;;;;5052785;28;20040;-76
2022/05/21 03:56:09;;;;;;;19.93;6.53;;;12.80;99.90;;;;;;5054407;28;20291;-76
2022/05/21 03:58:35;;;;;;;17.52;5.82;;;12.90;99.90;;;;;;5055055;28;20755;-76
2022/05/21 04:01:01;;;;;;;23.05;5.65;;;12.90;99.90;;;;;;5037650;28;20037;-75
2022/05/21 04:03:27;;;;;;;16.45;5.05;;;12.90;99.90;;;;;;5054524;28;20025;-75
2022/05/21 04:05:57;;;;;;;17.33;5.30;;;12.90;99.90;;;;;;5054176;28;20388;-75
2022/05/21 04:08:23;;;;;;;19.52;5.43;;;12.90;99.90;;;;;;5054896;28;20846;-75
2022/05/21 04:10:50;;;;;;;21.02;4.55;;;12.90;99.90;;;;;;5053919;28;20044;-75
2022/05/21 04:13:16;;;;;;;17.52;4.53;;;13.00;99.90;;;;;;5054086;28;20084;-75
2022/05/21 04:15:42;;;;;;;20.58;5.00;;;13.00;99.90;;;;;;5054457;28;20079;-76
2022/05/21 04:18:07;;;;;;;19.80;5.32;;;13.00;99.90;;;;;;5053784;28;20115;-76
2022/05/21 04:20:33;;;;;;;14.98;4.63;;;13.00;99.90;;;;;;5072247;28;20469;-75
2022/05/21 04:22:59;;;;;;;18.70;4.72;;;13.00;99.90;;;;;;5053661;28;20139;-75
2022/05/21 04:25:25;;;;;;;17.30;4.38;;;13.00;99.90;;;;;;5054158;28;20116;-76
2022/05/21 04:27:51;;;;;;;12.88;4.22;;;13.10;99.90;;;;;;5054557;28;20044;-76
2022/05/21 04:30:28;;;;;;;12.68;3.90;;;13.10;99.90;;;;;;5021026;28;20052;-76
2022/05/21 04:32:55;;;;;;;14.07;3.90;;;13.00;99.90;;;;;;5054272;28;20048;-76
2022/05/21 04:35:21;;;;;;;14.27;4.00;;;13.00;99.90;;;;;;5054276;28;20032;-76
2022/05/21 04:37:48;;;;;;;11.52;4.20;;;13.00;99.90;;;;;;5037460;28;20443;-76
2022/05/21 04:40:20;;;;;;;16.33;3.97;;;13.10;99.90;;;;;;5053532;28;20075;-75
2022/05/21 04:42:46;;;;;;;16.00;4.32;;;13.10;99.90;;;;;;5036952;28;20060;-76
2022/05/21 04:45:14;;;;;;;24.17;4.25;;;13.10;99.90;;;;;;5053461;28;20491;-76
2022/05/21 04:47:40;;;;;;;14.25;3.67;;;13.10;99.90;;;;;;5053635;28;20131;-76
2022/05/21 04:50:10;;;;;;;11.00;3.77;;;13.10;99.90;;;;;;5053445;28;20127;-76
2022/05/21 04:52:36;;;;;;;15.68;3.63;;;13.10;99.90;;;;;;5053886;28;20282;-76
2022/05/21 04:55:05;;;;;;;15.10;3.88;;;13.10;99.90;;;;;;5053315;28;20460;-76
2022/05/21 04:57:31;;;;;;;12.60;3.90;;;13.10;99.90;;;;;;5053598;28;20067;-76
2022/05/21 04:59:57;;;;;;;;;;;13.10;99.90;;;;;;5053383;28;20040;-75
2022/05/21 05:02:22;;;;;;;14.07;3.83;;;13.20;99.90;;;;;;5053525;28;19939;-76
2022/05/21 05:04:48;;;;;;;12.97;3.17;;;13.30;99.90;;;;;;5053613;28;20040;-76
2022/05/21 05:07:14;;;;;;;12.38;3.70;;;13.20;99.90;;;;;;5036372;28;20701;-76
2022/05/21 05:09:42;;;;;;;10.23;2.97;;;13.30;99.90;;;;;;5053384;28;20074;-75
2022/05/21 05:12:08;;;;;;;12.10;3.17;;;13.20;99.90;;;;;;5052887;28;20119;-76
2022/05/21 05:14:35;;;;;;;12.15;3.28;;;13.30;99.90;;;;;;5036853;28;20064;-77
2022/05/21 05:17:01;;;;;;;10.40;3.13;;;13.30;99.90;;;;;;5052650;28;20116;-76
2022/05/21 05:19:29;;;;;;;10.80;3.30;;;13.30;99.90;;;;;;5036718;28;20543;-76
2022/05/21 05:21:55;;;;;;;11.60;3.42;;;13.40;99.90;;;;;;5052938;28;20056;-76
2022/05/21 05:24:21;;;;;;;9.82;2.75;;;13.40;99.90;;;;;;5051878;28;20040;-75
2022/05/21 05:26:46;;;;;;;13.15;3.00;;;13.40;99.90;;;;;;5052684;28;20507;-76
2022/05/21 05:29:12;;;;;;;10.48;2.80;;;13.50;99.90;;;;;;5035932;28;20044;-76
2022/05/21 05:31:38;;;;;;;11.57;2.90;;;13.50;99.90;;;;;;5053436;28;20051;-76
2022/05/21 05:34:04;;;;;;;12.38;2.90;;;13.60;99.90;;;;;;5052427;28;20377;-76
2022/05/21 05:36:30;;;;;;;7.97;2.60;;;13.60;99.90;;;;;;5053007;28;20063;-76
2022/05/21 05:38:59;;;;;;;9.90;2.40;;;13.70;99.90;;;;;;5052653;28;20048;-76
2022/05/21 05:41:26;;;;;;;14.43;2.70;;;13.80;99.90;;;;;;5052956;28;20306;-76
2022/05/21 05:43:53;;;;;;;13.48;3.70;;;13.80;99.90;;;;;;5052743;28;20037;-76
2022/05/21 05:46:19;;;;;;;13.52;3.03;;;13.80;99.90;;;;;;5052286;28;20041;-76
2022/05/21 05:48:44;;;;;;;16.00;2.88;;;13.80;99.90;;;;;;5036039;28;20044;-76
2022/05/21 05:51:10;;;;;;;9.23;3.00;;;13.80;99.90;;;;;;5035784;28;20528;-76
2022/05/21 05:53:36;;;;;;;10.85;2.90;;;13.80;99.90;;;;;;5052715;28;20370;-77
2022/05/21 05:56:02;;;;;;;10.82;2.97;;;13.70;99.90;;;;;;5051974;28;20500;-75
2022/05/21 06:01:11;;;;;;;16.23;2.70;;;13.80;99.90;;;;;;5036747;28;20183;-76
2022/05/21 06:03:37;;;;;;;12.10;2.58;;;13.80;99.90;;;;;;5052683;28;20123;-77
2022/05/21 06:06:03;;;;;;;14.30;2.67;;;13.80;99.90;;;;;;5035754;28;20366;-76
2022/05/21 06:08:29;;;;;;;9.80;2.67;;;13.90;99.90;;;;;;5052468;28;20123;-76
2022/05/21 06:10:55;;;;;;;18.80;2.90;;;14.00;99.90;;;;;;5052559;28;20528;-76
2022/05/21 06:13:20;;;;;;;9.07;2.60;;;14.00;99.90;;;;;;5035636;28;20610;-76
2022/05/21 06:15:47;;;;;;;9.40;2.38;;;14.00;99.90;;;;;;5052637;28;20588;-77
2022/05/21 06:18:16;;;;;;;10.95;2.35;;;14.00;99.90;;;;;;5035322;28;20098;-77
2022/05/21 06:20:43;;;;;;;8.93;2.35;;;14.10;99.90;;;;;;5052387;28;20037;-77
2022/05/21 06:23:10;;;;;;;9.00;2.40;;;14.20;99.90;;;;;;5052140;28;20097;-77
2022/05/21 06:25:36;;;;;;;11.68;2.70;;;14.60;99.90;;;;;;5052173;28;20060;-76
2022/05/21 06:28:04;;;;;;;11.02;2.35;;;14.70;99.90;;;;;;5035712;28;20048;-76
2022/05/21 06:30:31;;;;;;;10.45;2.28;;;14.50;99.90;;;;;;5036342;28;20492;-76
2022/05/21 06:32:58;;;;;;;10.90;2.50;;;14.40;99.90;;;;;;5052377;28;20044;-76
2022/05/21 06:35:24;;;;;;;8.05;2.60;;;14.50;99.90;;;;;;5057590;28;20045;-76
2022/05/21 06:37:50;;;;;;;9.32;2.47;;;14.80;99.90;;;;;;5058759;28;20040;-77
2022/05/21 06:40:17;;;;;;;14.32;2.75;;;15.10;99.90;;;;;;5042048;28;20036;-77
2022/05/21 06:42:43;;;;;;;12.63;2.65;;;15.20;99.90;;;;;;5059473;28;20562;-77
2022/05/21 06:45:09;;;;;;;9.13;2.20;;;15.10;99.90;;;;;;5058722;28;20033;-76
2022/05/21 06:47:36;;;;;;;10.60;2.20;;;14.90;99.90;;;;;;5042365;28;20064;-76
2022/05/21 06:50:03;;;;;;;10.15;2.28;;;14.90;99.90;;;;;;5058488;28;20044;-77
2022/05/21 06:52:30;;;;;;;8.82;2.40;;;15.20;99.90;;;;;;5057586;28;20047;-77
2022/05/21 06:54:56;;;;;;;12.48;2.70;;;15.60;99.90;;;;;;5058144;28;20108;-77
2022/05/21 06:57:26;;;;;;;9.93;2.63;;;15.90;99.90;;;;;;5058107;28;20140;-77
2022/05/21 06:59:52;;;;;;;9.93;2.25;;;16.10;99.90;;;;;;5042733;28;20504;-77
2022/05/21 07:02:18;;;;;;;11.95;2.00;;;16.10;99.90;;;;;;5058717;28;20596;-77
2022/05/21 07:07:33;;;;;;;8.70;1.83;;;15.70;99.90;;;;;;5058292;28;20495;-77
2022/05/21 07:10:07;;;;;;;10.93;2.20;;;15.70;99.90;;;;;;5058210;28;20094;-79
2022/05/21 07:12:34;;;;;;;10.48;2.35;;;15.70;99.90;;;;;;5058402;28;20038;-77
2022/05/21 07:15:01;;;;;;;7.70;2.45;;;15.70;99.90;;;;;;5059471;28;20512;-77
2022/05/21 07:17:27;;;;;;;10.88;2.17;;;15.80;99.90;;;;;;5042221;28;20048;-78
2022/05/21 07:19:53;;;;;;;9.07;2.97;;;15.70;99.90;;;;;;5041946;28;20040;-81
2022/05/21 07:22:19;;;;;;;10.13;2.45;;;15.60;99.90;;;;;;5058369;28;20044;-79
2022/05/21 07:24:45;;;;;;;6.60;2.00;;;15.50;99.90;;;;;;5057880;28;20040;-77
2022/05/21 07:27:12;;;;;;;11.23;2.38;;;15.40;99.90;;;;;;5058109;28;20036;-78
2022/05/21 07:29:39;;;;;;;11.68;2.50;;;15.30;99.90;;;;;;5058145;28;20028;-80
2022/05/21 07:32:06;;;;;;;9.55;2.30;;;15.40;99.90;;;;;;5058114;28;20051;-79
2022/05/21 07:34:33;;;;;;;11.73;2.08;;;15.70;99.90;;;;;;5039706;28;20508;-79
2022/05/21 07:36:59;;;;;;;10.38;2.17;;;16.20;99.90;;;;;;5058428;28;20461;-79
2022/05/21 07:39:24;;;;;;;9.45;2.35;;;16.60;99.90;;;;;;5058286;28;20133;-78
2022/05/21 07:41:50;;;;;;;8.75;1.98;;;16.70;99.90;;;;;;5058161;28;20074;-79
2022/05/21 07:44:16;;;;;;;9.27;1.77;;;17.00;99.90;;;;;;5041623;28;20090;-79
2022/05/21 07:46:41;;;;;;;6.13;1.75;;;17.10;99.90;;;;;;5038477;28;20029;-79
2022/05/21 07:49:07;;;;;;;7.30;1.83;;;17.10;99.90;;;;;;5055871;28;20047;-80
2022/05/21 07:51:33;;;;;;;11.73;2.30;;;17.30;99.90;;;;;;5055105;28;20040;-79
2022/05/21 07:53:58;;;;;;;8.63;1.92;;;17.60;99.90;;;;;;5038309;28;20595;-80
2022/05/21 07:56:24;;;;;;;7.78;1.70;;;17.80;99.90;;;;;;5022286;28;20044;-78
2022/05/21 07:58:50;;;;;;;11.35;2.20;;;17.50;99.90;;;;;;5055511;28;20041;-79
2022/05/21 08:01:16;;;;;;;10.80;2.15;;;17.50;99.90;;;;;;5054661;28;20094;-78
2022/05/21 08:03:42;;;;;;;9.35;2.20;;;17.30;99.90;;;;;;5055307;28;20040;-79
2022/05/21 08:06:08;;;;;;;8.82;1.90;;;17.80;99.90;;;;;;5054816;28;20071;-79
2022/05/21 08:08:34;;;;;;;11.68;2.08;;;17.90;99.90;;;;;;5054684;28;20075;-79
2022/05/21 08:11:00;;;;;;;;;;;17.90;99.90;;;;;;5039304;28;20040;-79
2022/05/21 08:13:25;;;;;;;6.55;1.88;;;17.90;99.90;;;;;;5054488;28;20003;-78
2022/05/21 08:15:51;;;;;;;5.55;1.50;;;17.80;99.90;;;;;;5054720;28;20042;-77
2022/05/21 08:18:17;;;;;;;7.50;1.70;;;17.80;99.90;;;;;;5054494;28;20040;-81
2022/05/21 08:20:43;;;;;;;7.05;1.73;;;18.00;99.90;;;;;;5021700;28;20039;-82
2022/05/21 08:28:43;;;;;;;11.32;2.35;;;18.20;99.90;;;;;;5053982;28;20051;-80
2022/05/21 08:31:09;;;;;;;12.13;2.00;;;18.00;99.90;;;;;;5038217;28;20051;-81
2022/05/21 08:33:35;;;;;;;13.55;2.08;;;17.90;99.90;;;;;;5054328;28;20044;-79
2022/05/21 08:36:01;;;;;;;8.60;1.55;;;18.20;99.90;;;;;;5054824;28;20044;-80
2022/05/21 08:38:26;;;;;;;12.40;2.08;;;18.50;99.90;;;;;;5037686;28;20048;-81
2022/05/21 08:41:03;;;;;;;9.93;1.80;;;18.50;99.90;;;;;;5053893;28;20041;-80
2022/05/21 08:43:37;;;;;;;8.50;1.92;;;18.40;99.90;;;;;;5052566;28;20043;-80
2022/05/21 08:46:20;;;;;;;11.00;2.15;;;18.20;99.90;;;;;;5054036;28;20056;-81
2022/05/21 08:48:56;;;;;;;8.30;1.60;;;18.00;99.90;;;;;;5051552;28;20101;-80
2022/05/21 08:51:28;;;;;;;9.18;1.50;;;18.10;99.90;;;;;;5053602;28;20040;-80
2022/05/21 08:53:55;;;;;;;9.77;1.60;;;18.40;99.90;;;;;;5052308;28;20036;-79
2022/05/21 08:56:21;;;;;;;8.80;1.95;;;18.30;99.90;;;;;;5037010;28;20383;-78
2022/05/21 08:58:54;;;;;;;10.57;2.08;;;18.10;99.90;;;;;;5053338;28;20047;-79
2022/05/21 09:01:24;;;;;;;8.90;1.60;;;17.90;99.90;;;;;;5052916;28;20040;-75
2022/05/21 09:03:53;;;;;;;9.50;1.77;;;18.30;99.90;;;;;;5053355;28;20064;-75
2022/05/21 09:06:18;;;;;;;6.30;1.60;;;19.00;99.90;;;;;;5053321;28;20119;-75
2022/05/21 09:08:50;;;;;;;9.38;1.58;;;19.10;99.90;;;;;;5053761;28;20116;-76
2022/05/21 09:11:34;;;;;;;9.32;1.90;;;18.80;99.90;;;;;;5053404;28;20040;-76
2022/05/21 09:14:24;;;;;;;7.90;1.63;;;18.50;99.90;;;;;;5051100;28;20044;-76
2022/05/21 09:16:56;;;;;;;6.60;1.50;;;18.20;99.90;;;;;;5053779;28;20488;-76
2022/05/21 09:19:23;;;;;;;7.57;1.60;;;18.30;99.90;;;;;;5051143;28;20044;-74
2022/05/21 09:21:50;;;;;;;;;;;18.30;99.90;;;;;;5053774;28;20119;-75
2022/05/21 09:24:34;;;;;;;;;;;18.30;99.90;;;;;;5053861;28;19973;-76
2022/05/21 09:27:00;;;;;;;7.72;1.65;;;18.40;99.90;;;;;;5053009;28;19928;-76
2022/05/21 09:29:26;;;;;;;8.63;1.67;;;18.50;99.90;;;;;;5036348;28;20376;-76
2022/05/21 09:31:55;;;;;;;6.90;1.45;;;18.40;99.90;;;;;;5036985;28;20040;-77
2022/05/21 09:34:26;;;;;;;13.18;2.05;;;18.10;99.90;;;;;;5052731;28;20064;-77
2022/05/21 09:36:53;;;;;;;8.57;1.65;;;17.80;99.90;;;;;;5053487;28;20481;-77
2022/05/21 09:39:37;;;;;;;7.13;1.50;;;17.80;99.90;;;;;;5052894;28;20079;-77
2022/05/21 09:45:24;;;;;;;6.40;1.20;;;18.40;99.90;;;;;;5020368;28;20036;-77
2022/05/21 09:47:50;;;;;;;8.25;1.30;;;18.80;99.90;;;;;;5053408;28;20075;-77
2022/05/21 09:50:22;;;;;;;7.38;1.27;;;18.80;99.90;;;;;;5053181;28;20068;-77
2022/05/21 09:52:49;;;;;;;8.20;1.40;;;18.80;99.90;;;;;;5053055;28;20037;-76
2022/05/21 09:55:32;;;;;;;7.03;1.40;;;18.60;99.90;;;;;;5052979;28;20044;-77
2022/05/21 09:58:12;;;;;;;6.50;1.33;;;18.90;99.90;;;;;;5036167;28;20040;-77
2022/05/21 10:00:38;;;;;;;8.73;1.30;;;19.60;99.90;;;;;;5049980;28;20036;-77
2022/05/21 10:03:06;;;;;;;;;;;20.20;99.90;;;;;;5052919;28;20044;-78
2022/05/21 10:05:51;;;;;;;6.60;1.35;;;20.50;99.90;;;;;;5052303;28;20007;-77
2022/05/21 10:11:28;;;;;;;7.55;1.00;;;20.50;99.90;;;;;;5050303;28;20055;-78
2022/05/21 10:14:03;;;;;;;5.35;1.10;;;20.30;99.90;;;;;;5052084;28;20048;-78
2022/05/21 10:16:38;;;;;;;4.25;0.98;;;20.50;99.90;;;;;;5051814;28;20071;-78
2022/05/21 10:19:21;;;;;;;7.03;1.40;;;20.20;99.90;;;;;;5051340;28;20136;-78
2022/05/21 10:22:14;;;;;;;7.22;1.60;;;20.10;99.90;;;;;;5084163;28;20028;-78
2022/05/21 10:25:04;;;;;;;4.78;1.30;;;19.60;99.90;;;;;;5051005;28;20075;-75
2022/05/21 10:27:48;;;;;;;9.80;2.05;;;20.00;99.90;;;;;;5050062;28;20044;-77
2022/05/21 10:30:26;;;;;;;10.02;1.48;;;20.40;99.90;;;;;;5052581;28;20373;-76
2022/05/21 10:33:02;;;;;;;5.00;1.10;;;20.70;99.90;;;;;;5050532;28;20040;-78
2022/05/21 10:35:31;;;;;;;6.75;1.30;;;21.30;99.90;;;;;;5033502;28;20052;-78
2022/05/21 10:38:14;;;;;;;6.45;1.23;;;21.20;99.90;;;;;;5052860;28;20103;-78
2022/05/21 10:41:05;;;;;;;6.43;1.00;;;21.10;99.90;;;;;;5052635;28;20062;-78
2022/05/21 10:43:57;;;;;;;7.00;1.17;;;21.50;99.90;;;;;;5025390;28;20052;-77
2022/05/21 10:46:51;;;;;;;5.13;1.00;;;21.60;99.90;;;;;;5033672;28;20094;-77
2022/05/21 10:49:35;;;;;;;6.28;1.20;;;21.40;99.90;;;;;;5053119;28;20056;-79
2022/05/21 10:52:11;;;;;;;5.45;1.00;;;20.60;99.90;;;;;;5068847;28;20495;-78
2022/05/21 10:55:07;;;;;;;4.68;0.80;;;20.10;99.90;;;;;;5050253;28;20044;-78
2022/05/21 10:57:45;;;;;;;7.03;1.05;;;20.60;99.90;;;;;;5049622;28;20036;-79
2022/05/21 11:00:11;;;;;;;5.70;1.25;;;20.80;99.90;;;;;;5049175;28;20076;-78
2022/05/21 11:03:04;;;;;;;7.25;1.45;;;20.60;99.90;;;;;;5034680;28;20125;-78
2022/05/21 11:06:07;;;;;;;6.40;1.25;;;20.60;99.90;;;;;;5052277;28;20051;-78
2022/05/21 11:09:21;;;;;;;6.95;1.38;;;20.20;99.90;;;;;;5051111;28;20476;-77
2022/05/21 11:12:00;;;;;;;8.35;1.70;;;20.40;99.90;;;;;;5047270;28;20048;-78
2022/05/21 11:14:52;;;;;;;5.50;1.17;;;20.00;99.90;;;;;;5052172;28;20029;-78
2022/05/21 11:17:27;;;;;;;8.00;1.38;;;19.70;99.90;;;;;;5043866;28;20484;-79
2022/05/21 11:20:01;;;;;;;4.55;0.88;;;19.70;99.90;;;;;;5049985;28;20074;-78
2022/05/21 11:22:44;;;;;;;6.45;1.58;;;19.60;99.90;;;;;;5054790;28;20151;-78
2022/05/21 11:25:13;;;;;;;4.28;0.75;;;19.70;99.90;;;;;;5039367;28;20037;-78
2022/05/21 11:27:48;;;;;;;6.93;1.08;;;19.60;99.90;;;;;;5055890;28;20522;-79
2022/05/21 11:30:20;;;;;;;5.43;1.30;;;19.50;99.90;;;;;;5056358;28;20080;-78
2022/05/21 11:38:39;;;;;;;6.00;1.20;;;21.40;99.90;;;;;;5055453;28;20042;-78
2022/05/21 11:41:28;;;;;;;8.60;0.93;;;21.60;99.90;;;;;;5055219;28;20042;-77
2022/05/21 11:43:54;;;;;;;6.47;1.30;;;21.70;99.90;;;;;;5054471;28;20044;-78
2022/05/21 11:46:34;;;;;;;7.53;1.45;;;21.70;99.90;;;;;;5054502;28;20037;-78
2022/05/21 11:49:28;;;;;;;7.70;1.10;;;21.90;99.90;;;;;;5054511;28;20037;-77
2022/05/21 11:51:55;;;;;;;5.57;1.15;;;22.30;99.90;;;;;;5054463;28;20106;-77
2022/05/21 11:54:49;;;;;;;8.43;1.27;;;22.20;99.90;;;;;;5054747;28;20098;-78
2022/05/21 11:57:35;;;;;;;6.13;1.30;;;22.50;99.90;;;;;;5020912;28;20047;-79
2022/05/21 12:00:05;;;;;;;6.43;1.27;;;22.80;99.90;;;;;;5054093;28;20080;-78
2022/05/21 12:02:34;;;;;;;5.68;0.80;;;22.20;99.90;;;;;;5054349;28;20439;-78
2022/05/21 12:05:08;;;;;;;4.90;1.20;;;22.50;99.90;;;;;;5053954;28;20036;-78
2022/05/21 12:07:40;;;;;;;7.00;1.60;;;22.80;99.90;;;;;;5053883;28;20185;-77
2022/05/21 12:10:16;;;;;;;5.40;1.10;;;23.30;99.90;;;;;;5054364;28;20044;-78
2022/05/21 12:13:00;;;;;;;5.03;1.30;;;22.90;99.90;;;;;;5053762;28;20036;-78
2022/05/21 12:15:39;;;;;;;7.35;1.40;;;22.70;99.90;;;;;;5054194;28;20105;-78
2022/05/21 12:18:26;;;;;;;8.15;1.70;;;22.50;99.90;;;;;;5037366;28;20100;-78
2022/05/21 12:20:53;;;;;;;4.63;1.17;;;22.50;99.90;;;;;;5053333;28;20040;-78
2022/05/21 12:23:34;;;;;;;6.10;1.67;;;22.00;99.90;;;;;;5054197;28;20036;-78
2022/05/21 12:26:16;;;;;;;5.25;1.13;;;21.60;99.90;;;;;;5053549;28;20057;-78
2022/05/21 12:29:12;;;;;;;8.35;1.38;;;21.20;99.90;;;;;;5036890;28;20052;-78
2022/05/21 12:31:44;;;;;;;5.32;1.08;;;20.80;99.90;;;;;;5053044;28;20064;-79
2022/05/21 12:34:22;;;;;;;4.07;1.02;;;20.70;99.90;;;;;;5053937;28;20480;-78
2022/05/21 12:37:05;;;;;;;7.70;1.58;;;20.70;99.90;;;;;;5053249;28;20040;-78
2022/05/21 12:39:46;;;;;;;8.35;1.20;;;20.80;99.90;;;;;;5053252;28;20067;-79
2022/05/21 12:42:18;;;;;;;5.43;1.15;;;20.80;99.90;;;;;;5053183;28;20542;-77
2022/05/21 12:44:47;;;;;;;6.00;1.23;;;21.00;99.90;;;;;;5053303;28;20040;-77
2022/05/21 12:47:23;;;;;;;4.55;0.90;;;21.40;99.90;;;;;;5053293;28;20044;-77
2022/05/21 12:49:51;;;;;;;4.57;1.05;;;21.90;99.90;;;;;;5053256;28;20894;-77
2022/05/21 12:52:48;;;;;;;5.18;0.90;;;21.50;99.90;;;;;;5053475;28;20043;-79
2022/05/21 12:55:16;;;;;;;6.35;1.10;;;21.30;99.90;;;;;;5047483;28;20049;-79
2022/05/21 12:57:43;;;;;;;8.30;1.08;;;20.90;99.90;;;;;;5053047;28;20397;-78
2022/05/21 13:00:09;;;;;;;6.40;0.95;;;20.80;99.90;;;;;;5053010;28;20044;-78
2022/05/21 13:03:02;;;;;;;6.53;1.02;;;20.80;99.90;;;;;;5036443;28;20055;-77
2022/05/21 13:05:36;;;;;;;5.57;1.30;;;21.20;99.90;;;;;;5037808;28;20041;-77
2022/05/21 13:08:03;;;;;;;5.05;1.00;;;21.50;99.90;;;;;;5052910;28;20095;-77
2022/05/21 13:10:35;;;;;;;5.85;1.00;;;21.40;99.90;;;;;;5036617;28;20400;-77
2022/05/21 13:13:08;;;;;;;3.78;0.82;;;21.60;99.90;;;;;;5052928;28;20040;-78
2022/05/21 13:15:42;;;;;;;4.88;0.85;;;21.50;99.90;;;;;;5052723;28;20075;-77
2022/05/21 13:18:20;;;;;;;4.53;0.70;;;20.90;99.90;;;;;;5052968;28;20550;-78
2022/05/21 13:21:04;;;;;;;3.95;1.20;;;20.50;99.90;;;;;;5052366;28;20033;-78
2022/05/21 13:23:58;;;;;;;5.13;0.90;;;20.20;99.90;;;;;;5052874;28;20071;-77
2022/05/21 13:26:27;;;;;;;5.10;1.27;;;20.00;99.90;;;;;;5035913;28;20054;-77
2022/05/21 13:29:19;;;;;;;6.07;1.15;;;20.00;99.90;;;;;;5036034;28;20040;-78
2022/05/21 13:31:47;;;;;;;4.20;0.93;;;20.00;99.90;;;;;;5052264;28;20115;-78
2022/05/21 13:34:23;;;;;;;4.85;0.93;;;20.10;99.90;;;;;;5052932;28;20488;-78